createdAt,value
2023-08-12T00:00:46.392Z,16.84
2023-08-12T00:03:16.776Z,16.84
2023-08-12T00:05:47.102Z,16.77
2023-08-12T00:08:20.064Z,16.80
2023-08-12T00:10:50.437Z,16.75
2023-08-12T00:13:22.196Z,16.69
2023-08-12T00:15:52.599Z,16.71
2023-08-12T00:18:22.922Z,16.52
2023-08-12T00:20:53.364Z,16.61
2023-08-12T00:23:26.328Z,16.60
2023-08-12T00:25:56.712Z,16.61
2023-08-12T00:28:27.012Z,16.57
2023-08-12T00:30:57.475Z,16.61
2023-08-12T00:33:27.878Z,16.66
2023-08-12T00:35:58.281Z,16.64
2023-08-12T00:38:32.181Z,16.69
2023-08-12T00:41:02.520Z,16.72
2023-08-12T00:43:32.836Z,16.69
2023-08-12T00:46:03.973Z,16.72
2023-08-12T00:48:34.362Z,16.64
2023-08-12T00:51:05.270Z,16.67
2023-08-12T00:53:38.629Z,16.62
2023-08-12T00:56:09.216Z,16.55
2023-08-12T00:58:39.752Z,16.56
2023-08-12T01:01:10.238Z,16.49
2023-08-12T01:03:41.826Z,16.46
2023-08-12T01:06:12.401Z,16.46
2023-08-12T01:08:45.588Z,16.43
2023-08-12T01:11:27.342Z,16.42
2023-08-12T01:14:04.875Z,16.39
2023-08-12T01:16:39.310Z,16.33
2023-08-12T01:19:15.130Z,16.32
2023-08-12T01:21:48.557Z,16.27
2023-08-12T01:24:24.491Z,16.24
2023-08-12T01:26:56.851Z,16.30
2023-08-12T01:29:27.424Z,16.31
2023-08-12T01:32:05.409Z,16.35
2023-08-12T01:34:47.242Z,16.40
2023-08-12T01:37:29.168Z,16.41
2023-08-12T01:40:05.767Z,16.47
2023-08-12T01:42:38.580Z,16.51
2023-08-12T01:45:10.993Z,16.51
2023-08-12T01:47:41.793Z,16.57
2023-08-12T01:50:13.660Z,16.66
2023-08-12T01:52:44.046Z,16.68
2023-08-12T01:55:16.955Z,16.66
2023-08-12T01:57:47.386Z,16.70
2023-08-12T02:00:18.207Z,16.71
2023-08-12T02:02:50.270Z,16.68
2023-08-12T02:05:20.611Z,16.71
2023-08-12T02:07:51.050Z,16.70
2023-08-12T02:10:24.023Z,16.64
2023-08-12T02:12:54.438Z,16.62
2023-08-12T02:15:24.805Z,16.57
2023-08-12T02:17:55.247Z,16.53
2023-08-12T02:20:25.563Z,16.44
2023-08-12T02:22:55.901Z,16.37
2023-08-12T02:25:28.920Z,16.35
2023-08-12T02:27:59.259Z,16.28
2023-08-12T02:30:29.637Z,16.28
2023-08-12T02:33:00.266Z,16.20
2023-08-12T02:35:30.651Z,16.16
2023-08-12T02:38:01.011Z,16.15
2023-08-12T02:40:33.931Z,16.11
2023-08-12T02:43:04.296Z,16.08
2023-08-12T02:45:34.660Z,16.06
2023-08-12T02:48:05.040Z,16.03
2023-08-12T02:50:35.381Z,15.99
2023-08-12T02:53:06.770Z,15.97
2023-08-12T02:55:39.956Z,15.88
2023-08-12T02:58:10.387Z,15.95
2023-08-12T03:00:40.755Z,15.90
2023-08-12T03:03:11.148Z,15.93
2023-08-12T03:05:42.264Z,15.89
2023-08-12T03:08:12.592Z,15.81
2023-08-12T03:10:45.781Z,15.86
2023-08-12T03:13:16.158Z,15.84
2023-08-12T03:15:46.529Z,15.85
2023-08-12T03:18:16.853Z,15.83
2023-08-12T03:20:47.223Z,15.84
2023-08-12T03:23:18.855Z,15.86
2023-08-12T03:25:52.309Z,15.85
2023-08-12T03:28:22.634Z,15.82
2023-08-12T03:30:56.124Z,15.83
2023-08-12T03:33:26.690Z,15.86
2023-08-12T03:35:56.989Z,15.86
2023-08-12T03:38:27.373Z,15.82
2023-08-12T03:41:00.331Z,15.86
2023-08-12T03:43:30.627Z,15.86
2023-08-12T03:46:00.977Z,15.84
2023-08-12T03:48:31.295Z,15.82
2023-08-12T03:51:01.655Z,15.79
2023-08-12T03:53:32.036Z,15.77
2023-08-12T03:56:05.463Z,15.76
2023-08-12T03:58:35.784Z,15.65
2023-08-12T04:01:06.121Z,15.66
2023-08-12T04:03:36.564Z,15.65
2023-08-12T04:06:07.131Z,15.55
2023-08-12T04:08:37.508Z,15.57
2023-08-12T04:11:10.511Z,15.56
2023-08-12T04:13:40.832Z,15.54
2023-08-12T04:16:11.232Z,15.54
2023-08-12T04:18:41.599Z,15.58
2023-08-12T04:21:12.412Z,15.58
2023-08-12T04:23:42.765Z,15.54
2023-08-12T04:26:15.679Z,15.53
2023-08-12T04:28:48.877Z,15.54
2023-08-12T04:31:19.207Z,15.54
2023-08-12T04:33:50.870Z,15.59
2023-08-12T04:36:21.150Z,15.60
2023-08-12T04:38:51.492Z,15.64
2023-08-12T04:41:25.381Z,15.65
2023-08-12T04:43:55.710Z,15.73
2023-08-12T04:46:26.051Z,15.77
2023-08-12T04:48:56.519Z,15.79
2023-08-12T04:51:26.911Z,15.82
2023-08-12T04:53:57.226Z,15.82
2023-08-12T04:56:30.409Z,15.82
2023-08-12T04:59:00.942Z,15.87
2023-08-12T05:01:31.339Z,15.88
2023-08-12T05:04:01.752Z,15.88
2023-08-12T05:06:32.155Z,15.89
2023-08-12T05:09:02.486Z,15.88
2023-08-12T05:11:35.473Z,15.93
2023-08-12T05:14:05.859Z,15.92
2023-08-12T05:16:36.390Z,16.00
2023-08-12T05:19:07.074Z,15.98
2023-08-12T05:21:37.477Z,16.04
2023-08-12T05:24:08.735Z,16.04
2023-08-12T05:26:41.730Z,16.03
2023-08-12T05:29:12.032Z,16.08
2023-08-12T05:31:42.390Z,16.06
2023-08-12T05:34:12.900Z,16.11
2023-08-12T05:36:43.230Z,16.13
2023-08-12T05:39:13.613Z,16.13
2023-08-12T05:41:47.708Z,16.15
2023-08-12T05:44:18.708Z,16.11
2023-08-12T05:46:49.081Z,16.20
2023-08-12T05:49:19.417Z,16.22
2023-08-12T05:51:49.760Z,16.23
2023-08-12T05:54:20.143Z,16.17
2023-08-12T05:56:53.071Z,16.16
2023-08-12T05:59:23.534Z,16.22
2023-08-12T06:01:53.899Z,16.24
2023-08-12T06:04:24.387Z,16.29
2023-08-12T06:06:54.761Z,16.33
2023-08-12T06:09:26.004Z,16.38
2023-08-12T06:11:58.961Z,16.42
2023-08-12T06:14:29.356Z,16.44
2023-08-12T06:16:59.654Z,16.46
2023-08-12T06:19:30.005Z,16.44
2023-08-12T06:22:00.310Z,16.46
2023-08-12T06:24:30.729Z,16.48
2023-08-12T06:27:05.178Z,16.50
2023-08-12T06:29:35.585Z,16.53
2023-08-12T06:32:05.917Z,16.61
2023-08-12T06:34:36.303Z,16.66
2023-08-12T06:37:06.732Z,16.74
2023-08-12T06:39:37.056Z,16.82
2023-08-12T06:42:10.944Z,16.89
2023-08-12T06:44:41.569Z,17.00
2023-08-12T06:47:11.871Z,17.12
2023-08-12T06:49:42.160Z,17.18
2023-08-12T06:52:10.172Z,17.25
2023-08-12T06:54:40.723Z,17.32
2023-08-12T06:57:13.705Z,17.45
2023-08-12T06:59:44.068Z,17.49
2023-08-12T07:02:14.779Z,17.58
2023-08-12T07:04:45.340Z,17.68
2023-08-12T07:07:15.757Z,17.80
2023-08-12T07:09:46.089Z,18.03
2023-08-12T07:12:19.002Z,18.34
2023-08-12T07:14:49.311Z,18.60
2023-08-12T07:17:19.618Z,18.76
2023-08-12T07:19:50.009Z,18.84
2023-08-12T07:22:21.802Z,18.79
2023-08-12T07:24:53.894Z,18.81
2023-08-12T07:27:26.908Z,18.86
2023-08-12T07:29:57.493Z,18.85
2023-08-12T07:32:27.854Z,18.79
2023-08-12T07:34:58.234Z,18.80
2023-08-12T07:37:28.732Z,18.75
2023-08-12T07:39:59.070Z,18.93
2023-08-12T07:42:31.994Z,19.07
2023-08-12T07:45:02.535Z,19.14
2023-08-12T07:47:32.884Z,19.20
2023-08-12T07:50:03.238Z,19.24
2023-08-12T07:52:33.792Z,19.30
2023-08-12T07:55:04.152Z,19.37
2023-08-12T07:57:37.144Z,19.44
2023-08-12T08:00:09.420Z,19.44
2023-08-12T08:02:39.831Z,19.44
2023-08-12T08:05:11.732Z,19.42
2023-08-12T08:07:42.100Z,19.36
2023-08-12T08:10:14.073Z,19.39
2023-08-12T08:12:47.037Z,19.36
2023-08-12T08:15:17.402Z,19.33
2023-08-12T08:17:47.810Z,19.32
2023-08-12T08:20:18.383Z,19.45
2023-08-12T08:22:48.751Z,19.57
2023-08-12T08:25:19.114Z,19.65
2023-08-12T08:27:52.048Z,19.78
2023-08-12T08:30:24.195Z,19.89
2023-08-12T08:32:54.653Z,20.02
2023-08-12T08:35:25.123Z,20.18
2023-08-12T08:37:55.570Z,20.27
2023-08-12T08:40:26.030Z,20.37
2023-08-12T08:43:06.338Z,20.45
2023-08-12T08:45:37.596Z,20.48
2023-08-12T08:48:11.862Z,20.53
2023-08-12T08:50:44.149Z,20.54
2023-08-12T08:53:14.759Z,20.57
2023-08-12T08:55:46.137Z,20.60
2023-08-12T08:58:22.512Z,20.63
2023-08-12T09:00:54.668Z,20.62
2023-08-12T09:03:28.073Z,20.68
2023-08-12T09:06:00.556Z,20.63
2023-08-12T09:08:33.634Z,20.67
2023-08-12T09:11:04.716Z,20.67
2023-08-12T09:13:37.664Z,20.75
2023-08-12T09:16:08.395Z,20.73
2023-08-12T09:18:39.343Z,20.72
2023-08-12T09:21:10.317Z,20.61
2023-08-12T09:23:42.628Z,20.48
2023-08-12T09:26:19.377Z,20.38
2023-08-12T09:28:55.251Z,20.39
2023-08-12T09:31:30.873Z,20.40
2023-08-12T09:34:02.971Z,20.40
2023-08-12T09:36:35.562Z,20.44
2023-08-12T09:39:11.712Z,20.59
2023-08-12T09:41:42.866Z,20.69
2023-08-12T09:44:16.386Z,20.75
2023-08-12T09:46:46.724Z,20.78
2023-08-12T09:49:17.109Z,20.92
2023-08-12T09:51:47.755Z,21.16
2023-08-12T09:54:18.748Z,21.47
2023-08-12T09:56:52.792Z,21.65
2023-08-12T09:59:27.364Z,21.69
2023-08-12T10:01:58.104Z,21.77
2023-08-12T10:04:33.844Z,21.56
2023-08-12T10:07:05.621Z,21.72
2023-08-12T10:09:37.345Z,21.92
2023-08-12T10:12:10.802Z,22.08
2023-08-12T10:14:44.340Z,22.03
2023-08-12T10:17:17.728Z,22.13
2023-08-12T10:19:53.369Z,22.07
2023-08-12T10:22:24.223Z,22.04
2023-08-12T10:24:55.334Z,22.28
2023-08-12T10:27:25.794Z,22.47
2023-08-12T10:30:00.652Z,22.73
2023-08-12T10:32:31.170Z,22.94
2023-08-12T10:35:02.484Z,23.02
2023-08-12T10:37:37.245Z,23.06
2023-08-12T10:40:11.942Z,23.04
2023-08-12T10:42:46.222Z,23.05
2023-08-12T10:45:21.224Z,23.10
2023-08-12T10:48:19.582Z,23.15
2023-08-12T10:50:53.005Z,23.04
2023-08-12T10:53:31.126Z,23.01
2023-08-12T10:56:03.301Z,22.99
2023-08-12T10:58:42.088Z,22.93
2023-08-12T11:01:21.523Z,22.88
2023-08-12T11:03:55.124Z,22.91
2023-08-12T11:06:25.701Z,22.86
2023-08-12T11:08:57.507Z,22.93
2023-08-12T11:11:28.693Z,22.87
2023-08-12T11:14:00.899Z,22.68
2023-08-12T11:16:42.608Z,22.76
2023-08-12T11:19:13.176Z,22.82
2023-08-12T11:21:44.307Z,22.89
2023-08-12T11:24:15.019Z,22.90
2023-08-12T11:26:46.684Z,23.06
2023-08-12T11:29:18.545Z,22.98
2023-08-12T11:31:51.510Z,22.98
2023-08-12T11:34:22.005Z,23.06
2023-08-12T11:36:52.431Z,23.09
2023-08-12T11:39:22.790Z,23.19
2023-08-12T11:41:54.051Z,23.36
2023-08-12T11:44:26.850Z,23.31
2023-08-12T11:46:59.917Z,23.27
2023-08-12T11:49:30.264Z,22.96
2023-08-12T11:52:00.706Z,22.76
2023-08-12T11:54:32.250Z,22.52
2023-08-12T11:57:04.050Z,22.31
2023-08-12T11:59:35.330Z,22.24
2023-08-12T12:02:09.253Z,22.10
2023-08-12T12:04:39.602Z,22.14
2023-08-12T12:07:22.784Z,22.13
2023-08-12T12:09:56.349Z,21.94
2023-08-12T12:12:28.692Z,21.80
2023-08-12T12:15:00.647Z,21.69
2023-08-12T12:17:34.460Z,21.73
2023-08-12T12:20:06.937Z,21.74
2023-08-12T12:22:37.681Z,21.76
2023-08-12T12:25:12.756Z,21.70
2023-08-12T12:27:43.967Z,21.71
2023-08-12T12:30:16.750Z,21.80
2023-08-12T12:32:50.172Z,21.89
2023-08-12T12:35:20.780Z,22.06
2023-08-12T12:37:51.143Z,22.11
2023-08-12T12:40:21.444Z,22.27
2023-08-12T12:42:52.041Z,22.32
2023-08-12T12:45:22.383Z,22.39
2023-08-12T12:47:55.484Z,22.33
2023-08-12T12:50:25.846Z,22.26
2023-08-12T12:52:56.172Z,22.22
2023-08-12T12:55:26.489Z,22.28
2023-08-12T12:57:56.851Z,22.36
2023-08-12T13:00:27.537Z,22.51
2023-08-12T13:03:00.584Z,22.46
2023-08-12T13:05:30.962Z,22.54
2023-08-12T13:08:01.482Z,22.54
2023-08-12T13:10:31.776Z,22.60
2023-08-12T13:13:02.145Z,22.68
2023-08-12T13:15:34.580Z,22.55
2023-08-12T13:18:09.772Z,22.50
2023-08-12T13:20:40.228Z,22.51
2023-08-12T13:23:10.931Z,22.51
2023-08-12T13:25:41.578Z,22.65
2023-08-12T13:28:12.200Z,22.75
2023-08-12T13:30:42.630Z,22.81
2023-08-12T13:33:15.767Z,22.97
2023-08-12T13:35:46.178Z,23.09
2023-08-12T13:38:16.540Z,23.31
2023-08-12T13:40:46.896Z,23.47
2023-08-12T13:43:17.432Z,23.55
2023-08-12T13:45:47.862Z,23.47
2023-08-12T13:48:20.868Z,23.44
2023-08-12T13:50:53.653Z,23.52
2023-08-12T13:53:25.228Z,23.57
2023-08-12T13:55:55.875Z,23.50
2023-08-12T13:58:26.326Z,23.57
2023-08-12T14:00:56.629Z,23.53
2023-08-12T14:03:29.967Z,23.64
2023-08-12T14:06:00.458Z,23.77
2023-08-12T14:08:30.903Z,23.80
2023-08-12T14:11:01.191Z,23.65
2023-08-12T14:13:31.572Z,23.63
2023-08-12T14:16:01.992Z,23.51
2023-08-12T14:18:35.044Z,23.69
2023-08-12T14:21:05.354Z,23.69
2023-08-12T14:23:35.791Z,23.67
2023-08-12T14:26:06.173Z,23.63
2023-08-12T14:28:36.562Z,23.62
2023-08-12T14:31:06.935Z,23.62
2023-08-12T14:33:40.045Z,23.51
2023-08-12T14:36:11.261Z,23.41
2023-08-12T14:38:41.583Z,23.31
2023-08-12T14:41:11.960Z,23.26
2023-08-12T14:43:42.657Z,22.98
2023-08-12T14:46:13.072Z,22.82
2023-08-12T14:48:46.183Z,22.65
2023-08-12T14:51:16.533Z,22.66
2023-08-12T14:53:48.735Z,22.75
2023-08-12T14:56:19.751Z,22.86
2023-08-12T14:58:50.220Z,23.00
2023-08-12T15:01:20.747Z,22.91
2023-08-12T15:03:53.918Z,22.74
2023-08-12T15:06:25.449Z,22.73
2023-08-12T15:08:55.929Z,22.54
2023-08-12T15:11:26.698Z,22.66
2023-08-12T15:13:57.049Z,22.52
2023-08-12T15:16:27.541Z,22.54
2023-08-12T15:19:00.502Z,22.45
2023-08-12T15:21:30.856Z,22.35
2023-08-12T15:24:01.204Z,22.37
2023-08-12T15:26:32.987Z,22.47
2023-08-12T15:29:03.486Z,22.49
2023-08-12T15:31:33.910Z,22.72
2023-08-12T15:34:07.461Z,22.89
2023-08-12T15:36:37.964Z,22.80
2023-08-12T15:39:08.761Z,22.84
2023-08-12T15:41:44.978Z,22.84
2023-08-12T15:44:16.049Z,22.92
2023-08-12T15:46:46.950Z,22.77
2023-08-12T15:49:20.096Z,22.69
2023-08-12T15:51:50.506Z,22.70
2023-08-12T15:54:20.885Z,22.69
2023-08-12T15:56:51.162Z,22.57
2023-08-12T15:59:23.385Z,22.58
2023-08-12T16:01:54.112Z,22.65
2023-08-12T16:04:27.181Z,22.72
2023-08-12T16:06:58.304Z,22.78
2023-08-12T16:09:28.714Z,22.86
2023-08-12T16:11:59.020Z,22.85
2023-08-12T16:14:29.508Z,23.00
2023-08-12T16:16:59.921Z,23.04
2023-08-12T16:19:32.814Z,23.04
2023-08-12T16:22:03.149Z,23.06
2023-08-12T16:24:33.658Z,23.18
2023-08-12T16:27:06.249Z,23.30
2023-08-12T16:29:36.645Z,23.38
2023-08-12T16:32:07.687Z,23.39
2023-08-12T16:34:40.612Z,23.41
2023-08-12T16:37:21.025Z,23.33
2023-08-12T16:39:52.460Z,23.29
2023-08-12T16:42:23.142Z,23.26
2023-08-12T16:44:54.857Z,23.21
2023-08-12T16:47:25.915Z,23.29
2023-08-12T16:49:58.898Z,23.20
2023-08-12T16:52:29.410Z,23.03
2023-08-12T16:55:00.206Z,22.95
2023-08-12T16:57:30.660Z,22.85
2023-08-12T17:00:04.462Z,22.88
2023-08-12T17:02:34.893Z,22.83
2023-08-12T17:05:09.479Z,22.69
2023-08-12T17:07:39.751Z,22.71
2023-08-12T17:10:10.953Z,22.65
2023-08-12T17:12:41.606Z,22.60
2023-08-12T17:15:13.995Z,22.61
2023-08-12T17:17:44.635Z,22.53
2023-08-12T17:20:18.837Z,22.34
2023-08-12T17:22:49.145Z,22.41
2023-08-12T17:25:19.483Z,22.37
2023-08-12T17:27:49.833Z,22.29
2023-08-12T17:30:20.976Z,22.31
2023-08-12T17:32:51.389Z,22.36
2023-08-12T17:35:24.383Z,22.29
2023-08-12T17:37:54.698Z,22.19
2023-08-12T17:40:26.241Z,22.08
2023-08-12T17:42:56.637Z,21.97
2023-08-12T17:45:27.161Z,21.86
2023-08-12T17:48:01.919Z,21.76
2023-08-12T17:50:35.014Z,21.65
2023-08-12T17:53:05.622Z,21.56
2023-08-12T17:55:36.100Z,21.46
2023-08-12T17:58:06.562Z,21.41
2023-08-12T18:00:36.983Z,21.40
2023-08-12T18:03:07.983Z,21.37
2023-08-12T18:05:41.106Z,21.43
2023-08-12T18:08:11.649Z,21.47
2023-08-12T18:10:42.005Z,21.42
2023-08-12T18:13:12.367Z,21.50
2023-08-12T18:15:43.017Z,21.49
2023-08-12T18:18:13.396Z,21.46
2023-08-12T18:20:46.345Z,21.35
2023-08-12T18:23:16.720Z,21.26
2023-08-12T18:25:47.165Z,21.24
2023-08-12T18:28:18.454Z,21.00
2023-08-12T18:30:48.812Z,21.11
2023-08-12T18:33:19.209Z,21.06
2023-08-12T18:35:52.219Z,21.00
2023-08-12T18:38:22.545Z,20.79
2023-08-12T18:40:53.019Z,20.92
2023-08-12T18:43:23.417Z,20.81
2023-08-12T18:45:54.534Z,20.79
2023-08-12T18:48:24.875Z,20.75
2023-08-12T18:50:57.837Z,20.73
2023-08-12T18:53:28.593Z,20.68
2023-08-12T18:55:58.953Z,20.69
2023-08-12T18:58:29.284Z,20.70
2023-08-12T19:00:59.633Z,20.66
2023-08-12T19:03:30.042Z,20.62
2023-08-12T19:06:06.290Z,20.53
2023-08-12T19:08:36.626Z,20.44
2023-08-12T19:11:07.279Z,20.41
2023-08-12T19:13:38.014Z,20.37
2023-08-12T19:16:08.442Z,20.36
2023-08-12T19:18:38.780Z,20.23
2023-08-12T19:21:11.764Z,20.28
2023-08-12T19:23:42.168Z,20.23
2023-08-12T19:26:12.614Z,20.20
2023-08-12T19:28:42.956Z,20.14
2023-08-12T19:31:13.336Z,20.12
2023-08-12T19:33:44.020Z,20.06
2023-08-12T19:36:16.965Z,20.06
2023-08-12T19:38:47.323Z,20.04
2023-08-12T19:41:17.651Z,20.01
2023-08-12T19:43:47.984Z,19.96
2023-08-12T19:46:18.611Z,19.88
2023-08-12T19:48:49.092Z,19.79
2023-08-12T19:51:22.008Z,19.71
2023-08-12T19:53:52.349Z,19.61
2023-08-12T19:56:22.678Z,19.55
2023-08-12T19:58:53.009Z,19.46
2023-08-12T20:01:23.441Z,19.35
2023-08-12T20:03:54.067Z,19.32
2023-08-12T20:06:27.042Z,19.19
2023-08-12T20:08:57.625Z,19.17
2023-08-12T20:11:28.166Z,19.17
2023-08-12T20:13:58.584Z,19.16
2023-08-12T20:16:28.972Z,19.12
2023-08-12T20:18:59.441Z,19.08
2023-08-12T20:21:32.854Z,19.08
2023-08-12T20:24:03.247Z,19.08
2023-08-12T20:26:33.592Z,19.02
2023-08-12T20:29:03.954Z,18.96
2023-08-12T20:31:34.284Z,19.03
2023-08-12T20:34:04.704Z,18.98
2023-08-12T20:36:37.678Z,18.93
2023-08-12T20:39:11.212Z,18.86
2023-08-12T20:41:41.819Z,18.86
2023-08-12T20:44:12.105Z,18.76
2023-08-12T20:46:42.787Z,18.74
2023-08-12T20:49:13.380Z,18.70
2023-08-12T20:51:46.365Z,18.57
2023-08-12T20:54:16.710Z,18.64
2023-08-12T20:56:47.041Z,18.63
2023-08-12T20:59:17.389Z,18.59
2023-08-12T21:01:48.835Z,18.60
2023-08-12T21:04:19.277Z,18.63
2023-08-12T21:06:57.519Z,18.61
2023-08-12T21:09:28.626Z,18.55
2023-08-12T21:11:59.161Z,18.50
2023-08-12T21:14:29.452Z,18.44
2023-08-12T21:16:59.773Z,18.36
2023-08-12T21:19:30.118Z,18.33
2023-08-12T21:22:03.066Z,18.31
2023-08-12T21:24:33.395Z,18.30
2023-08-12T21:27:04.355Z,18.26
2023-08-12T21:29:34.763Z,18.21
2023-08-12T21:32:05.119Z,18.19
2023-08-12T21:34:35.531Z,18.20
2023-08-12T21:37:08.704Z,18.21
2023-08-12T21:39:39.018Z,18.19
2023-08-12T21:42:10.061Z,18.09
2023-08-12T21:44:40.391Z,18.02
2023-08-12T21:47:10.878Z,17.95
2023-08-12T21:49:41.185Z,17.89
2023-08-12T21:52:14.409Z,17.80
2023-08-12T21:54:46.900Z,17.76
2023-08-12T21:57:17.470Z,17.72
2023-08-12T21:59:47.762Z,17.59
2023-08-12T22:02:27.371Z,17.60
2023-08-12T22:04:58.462Z,17.58
2023-08-12T22:07:31.424Z,17.46
2023-08-12T22:10:02.023Z,17.44
2023-08-12T22:12:32.447Z,17.41
2023-08-12T22:15:02.817Z,17.31
2023-08-12T22:17:33.725Z,17.32
2023-08-12T22:20:05.686Z,17.28
2023-08-12T22:22:38.610Z,17.24
2023-08-12T22:25:10.627Z,17.25
2023-08-12T22:27:41.327Z,17.25
2023-08-12T22:30:13.133Z,17.28
2023-08-12T22:32:43.563Z,17.30
2023-08-12T22:35:13.910Z,17.31
2023-08-12T22:37:46.882Z,17.28
2023-08-12T22:40:17.230Z,17.28
2023-08-12T22:42:47.641Z,17.18
2023-08-12T22:45:18.090Z,17.13
2023-08-12T22:47:48.774Z,17.07
2023-08-12T22:50:19.261Z,17.05
2023-08-12T22:52:52.888Z,17.02
2023-08-12T22:55:23.177Z,16.96
2023-08-12T22:57:53.504Z,16.91
2023-08-12T23:00:23.868Z,16.91
2023-08-12T23:02:54.362Z,16.85
2023-08-12T23:05:24.756Z,16.83
2023-08-12T23:07:57.669Z,16.75
2023-08-12T23:10:27.979Z,16.79
2023-08-12T23:12:58.368Z,16.77
2023-08-12T23:15:28.719Z,16.77
2023-08-12T23:17:59.158Z,16.79
2023-08-12T23:20:29.700Z,16.80
2023-08-12T23:23:02.595Z,16.80
2023-08-12T23:25:32.928Z,16.81
2023-08-12T23:28:03.347Z,16.76
2023-08-12T23:30:33.713Z,16.77
2023-08-12T23:33:04.107Z,16.79
2023-08-12T23:35:34.909Z,16.77
2023-08-12T23:38:08.379Z,16.74
2023-08-12T23:40:38.764Z,16.75
2023-08-12T23:43:09.577Z,16.74
2023-08-12T23:45:40.321Z,16.75
2023-08-12T23:48:11.138Z,16.81
2023-08-12T23:50:41.896Z,16.82
2023-08-12T23:53:14.928Z,16.83
2023-08-12T23:55:45.257Z,16.74
2023-08-12T23:58:15.649Z,16.75
